createdAt,value
2018-12-17T00:01:53.751Z,52.40
2018-12-17T00:04:23.768Z,54.00
2018-12-17T00:06:53.554Z,51.23
2018-12-17T00:09:23.681Z,50.77
2018-12-17T00:11:53.466Z,51.87
2018-12-17T00:14:23.621Z,51.20
2018-12-17T00:16:53.401Z,49.77
2018-12-17T00:19:23.402Z,52.40
2018-12-17T00:21:53.162Z,52.67
2018-12-17T00:24:23.856Z,53.00
2018-12-17T00:26:53.649Z,49.03
2018-12-17T00:29:23.642Z,50.67
2018-12-17T00:31:53.437Z,52.50
2018-12-17T00:34:23.486Z,50.97
2018-12-17T00:36:53.307Z,51.93
2018-12-17T00:39:23.805Z,51.97
2018-12-17T00:41:53.662Z,52.77
2018-12-17T00:44:23.542Z,53.60
2018-12-17T00:46:53.342Z,53.33
2018-12-17T00:49:23.493Z,53.20
2018-12-17T00:51:53.347Z,54.40
2018-12-17T00:54:23.122Z,53.57
2018-12-17T00:56:52.947Z,52.27
2018-12-17T00:59:23.017Z,51.10
2018-12-17T01:01:52.847Z,51.80
2018-12-17T01:04:23.493Z,52.33
2018-12-17T01:06:53.307Z,53.43
2018-12-17T01:09:23.277Z,57.27
2018-12-17T01:11:53.070Z,56.20
2018-12-17T01:14:22.953Z,56.33
2018-12-17T01:16:52.757Z,57.87
2018-12-17T01:19:22.702Z,57.40
2018-12-17T01:21:52.602Z,55.60
2018-12-17T01:24:22.572Z,56.67
2018-12-17T01:26:52.402Z,57.53
2018-12-17T01:29:22.322Z,56.67
2018-12-17T01:31:52.220Z,60.33
2018-12-17T01:34:22.227Z,57.80
2018-12-17T01:36:51.967Z,56.13
2018-12-17T01:39:22.152Z,57.17
2018-12-17T01:41:51.942Z,54.50
2018-12-17T01:44:21.898Z,56.33
2018-12-17T01:46:51.712Z,56.40
2018-12-17T01:49:21.542Z,53.90
2018-12-17T01:51:51.326Z,56.27
2018-12-17T01:54:21.116Z,56.40
2018-12-17T01:56:50.902Z,55.83
2018-12-17T01:59:20.707Z,55.60
2018-12-17T02:01:50.572Z,55.43
2018-12-17T02:04:20.377Z,54.17
2018-12-17T02:06:50.183Z,57.33
2018-12-17T02:09:20.136Z,55.13
2018-12-17T02:11:49.907Z,57.67
2018-12-17T02:14:19.822Z,57.90
2018-12-17T02:16:49.653Z,57.50
2018-12-17T02:19:19.644Z,56.93
2018-12-17T02:21:49.496Z,59.53
2018-12-17T02:24:19.347Z,58.27
2018-12-17T02:26:49.543Z,57.03
2018-12-17T02:29:19.346Z,56.23
2018-12-17T02:31:49.143Z,55.87
2018-12-17T02:34:19.016Z,58.03
2018-12-17T02:36:55.593Z,54.70
2018-12-17T02:39:25.473Z,55.50
2018-12-17T02:41:55.106Z,55.90
2018-12-17T02:44:24.963Z,58.20
2018-12-17T02:46:54.763Z,60.43
2018-12-17T02:49:24.758Z,60.30
2018-12-17T02:51:54.666Z,60.83
2018-12-17T02:54:24.572Z,60.03
2018-12-17T02:56:54.231Z,61.77
2018-12-17T02:59:24.193Z,59.30
2018-12-17T03:01:53.931Z,60.67
2018-12-17T03:05:06.485Z,59.77
2018-12-17T03:07:36.271Z,60.20
2018-12-17T03:10:07.107Z,59.50
2018-12-17T03:12:36.891Z,58.47
2018-12-17T03:15:07.317Z,58.80
2018-12-17T03:17:37.372Z,54.47
2018-12-17T03:20:07.386Z,56.13
2018-12-17T03:22:37.196Z,58.57
2018-12-17T03:25:07.426Z,59.73
2018-12-17T03:27:37.568Z,58.73
2018-12-17T03:30:07.539Z,56.37
2018-12-17T03:32:37.552Z,58.50
2018-12-17T03:35:07.527Z,58.03
2018-12-17T03:37:37.302Z,58.60
2018-12-17T03:40:07.632Z,54.40
2018-12-17T03:42:37.426Z,58.10
2018-12-17T03:45:07.536Z,58.07
2018-12-17T03:47:37.302Z,57.00
2018-12-17T03:50:07.717Z,57.67
2018-12-17T03:52:37.842Z,56.40
2018-12-17T03:55:07.858Z,55.73
2018-12-17T03:57:37.577Z,54.77
2018-12-17T04:00:07.941Z,56.00
2018-12-17T04:02:37.837Z,56.33
2018-12-17T04:05:07.966Z,58.40
2018-12-17T04:07:38.091Z,56.20
2018-12-17T04:10:08.243Z,56.07
2018-12-17T04:12:38.509Z,57.60
2018-12-17T04:15:08.611Z,57.00
2018-12-17T04:17:38.818Z,56.17
2018-12-17T04:20:08.592Z,55.10
2018-12-17T04:22:38.571Z,54.37
2018-12-17T04:25:08.692Z,52.87
2018-12-17T04:27:38.477Z,52.57
2018-12-17T04:30:08.647Z,54.73
2018-12-17T04:32:38.566Z,50.67
2018-12-17T04:35:08.642Z,53.73
2018-12-17T04:37:38.698Z,54.03
2018-12-17T04:40:08.687Z,53.97
2018-12-17T04:42:38.627Z,53.57
2018-12-17T04:45:08.427Z,56.63
2018-12-17T04:47:38.507Z,58.63
2018-12-17T04:50:08.571Z,57.20
2018-12-17T04:52:38.371Z,52.63
2018-12-17T04:55:08.576Z,56.63
2018-12-17T04:57:38.889Z,57.13
2018-12-17T05:00:10.158Z,62.53
2018-12-17T05:02:40.227Z,63.17
2018-12-17T05:05:10.042Z,59.33
2018-12-17T05:07:40.211Z,62.07
2018-12-17T05:10:10.066Z,62.53
2018-12-17T05:12:40.236Z,61.83
2018-12-17T05:15:10.367Z,59.80
2018-12-17T05:17:40.738Z,61.83
2018-12-17T05:20:10.799Z,57.40
2018-12-17T05:22:40.579Z,57.97
2018-12-17T05:25:10.821Z,57.43
2018-12-17T05:27:41.225Z,58.30
2018-12-17T05:30:11.796Z,57.73
2018-12-17T05:32:41.906Z,55.93
2018-12-17T05:35:11.946Z,57.87
2018-12-17T05:37:42.031Z,56.60
2018-12-17T05:40:12.162Z,55.33
2018-12-17T05:42:42.227Z,56.20
2018-12-17T05:45:12.431Z,56.00
2018-12-17T05:47:42.547Z,55.33
2018-12-17T05:50:12.723Z,57.20
2018-12-17T05:52:42.775Z,57.70
2018-12-17T05:55:12.651Z,55.93
2018-12-17T05:57:42.611Z,56.63
2018-12-17T06:00:12.391Z,60.33
2018-12-17T06:02:42.612Z,59.77
2018-12-17T06:05:12.326Z,60.30
2018-12-17T06:07:42.355Z,59.57
2018-12-17T06:10:12.452Z,58.00
2018-12-17T06:12:42.151Z,57.97
2018-12-17T06:15:11.977Z,56.83
2018-12-17T06:17:41.781Z,57.13
2018-12-17T06:20:11.906Z,56.13
2018-12-17T06:22:42.036Z,54.80
2018-12-17T06:25:12.192Z,55.83
2018-12-17T06:27:42.242Z,54.43
2018-12-17T06:30:12.011Z,56.23
2018-12-17T06:32:42.001Z,58.13
2018-12-17T06:35:11.991Z,55.47
2018-12-17T06:37:41.967Z,57.40
2018-12-17T06:40:12.028Z,58.30
2018-12-17T06:42:41.736Z,59.53
2018-12-17T06:45:11.686Z,57.67
2018-12-17T06:47:41.687Z,56.23
2018-12-17T06:50:11.427Z,57.23
2018-12-17T06:52:41.390Z,57.13
2018-12-17T06:55:11.243Z,56.10
2018-12-17T06:57:41.087Z,53.73
2018-12-17T07:00:11.422Z,57.03
2018-12-17T07:02:41.731Z,58.87
2018-12-17T07:05:11.501Z,54.90
2018-12-17T07:07:41.565Z,57.20
2018-12-17T07:10:12.066Z,57.77
2018-12-17T07:12:41.806Z,55.70
2018-12-17T07:15:12.066Z,56.40
2018-12-17T07:17:42.127Z,56.53
2018-12-17T07:20:12.331Z,56.67
2018-12-17T07:22:42.324Z,57.33
2018-12-17T07:25:12.591Z,59.23
2018-12-17T07:27:42.713Z,57.60
2018-12-17T07:30:12.866Z,55.07
2018-12-17T07:32:42.601Z,57.20
2018-12-17T07:35:12.899Z,57.67
2018-12-17T07:37:42.871Z,54.73
2018-12-17T07:40:13.218Z,55.83
2018-12-17T07:42:43.417Z,54.40
2018-12-17T07:45:13.475Z,52.10
2018-12-17T07:47:43.396Z,54.67
2018-12-17T07:50:13.372Z,54.57
2018-12-17T07:52:43.486Z,54.83
2018-12-17T07:55:13.981Z,55.20
2018-12-17T07:57:43.812Z,57.97
2018-12-17T08:00:14.207Z,57.90
2018-12-17T08:02:44.666Z,54.77
2018-12-17T08:05:15.087Z,56.37
2018-12-17T08:07:45.172Z,55.13
2018-12-17T08:10:15.251Z,56.57
2018-12-17T08:12:45.177Z,58.97
2018-12-17T08:15:15.131Z,59.77
2018-12-17T08:17:45.156Z,58.37
2018-12-17T08:20:15.306Z,56.77
2018-12-17T08:22:45.627Z,61.90
2018-12-17T08:25:15.982Z,60.10
2018-12-17T08:27:45.742Z,58.87
2018-12-17T08:30:16.383Z,58.90
2018-12-17T08:32:46.362Z,59.93
2018-12-17T08:35:16.136Z,59.30
2018-12-17T08:37:46.227Z,58.87
2018-12-17T08:40:16.377Z,58.77
2018-12-17T08:42:46.472Z,57.33
2018-12-17T08:45:16.438Z,58.23
2018-12-17T08:47:46.326Z,59.97
2018-12-17T08:50:16.822Z,57.90
2018-12-17T08:52:47.131Z,58.90
2018-12-17T08:55:17.207Z,56.40
2018-12-17T08:57:47.227Z,58.43
2018-12-17T09:00:17.218Z,58.57
2018-12-17T09:02:47.182Z,53.57
2018-12-17T09:05:17.307Z,55.10
2018-12-17T09:07:47.312Z,56.63
2018-12-17T09:10:17.128Z,58.20
2018-12-17T09:12:47.322Z,57.70
2018-12-17T09:15:17.202Z,53.97
2018-12-17T09:17:47.267Z,55.33
2018-12-17T09:20:17.432Z,56.60
2018-12-17T09:22:47.232Z,56.70
2018-12-17T09:25:17.589Z,58.63
2018-12-17T09:27:47.623Z,55.17
2018-12-17T09:30:18.678Z,57.03
2018-12-17T09:32:48.882Z,57.03
2018-12-17T09:35:18.983Z,57.00
2018-12-17T09:37:49.192Z,53.77
2018-12-17T09:40:18.942Z,56.77
2018-12-17T09:42:49.208Z,55.50
2018-12-17T09:45:19.202Z,55.20
2018-12-17T09:47:49.088Z,54.20
2018-12-17T09:50:19.341Z,55.17
2018-12-17T09:52:49.117Z,53.07
2018-12-17T09:55:19.107Z,55.23
2018-12-17T09:57:49.142Z,53.83
2018-12-17T10:00:25.205Z,54.33
2018-12-17T10:02:51.348Z,55.37
2018-12-17T10:05:21.482Z,56.23
2018-12-17T10:07:51.526Z,55.90
2018-12-17T10:10:21.322Z,57.07
2018-12-17T10:12:51.387Z,57.73
2018-12-17T10:15:21.272Z,62.33
2018-12-17T10:17:51.322Z,60.70
2018-12-17T10:20:21.536Z,61.93
2018-12-17T10:22:51.367Z,60.40
2018-12-17T10:25:21.542Z,58.97
2018-12-17T10:27:51.707Z,59.47
2018-12-17T10:30:22.102Z,57.33
2018-12-17T10:32:52.247Z,60.40
2018-12-17T10:35:22.547Z,59.73
2018-12-17T10:37:52.777Z,60.10
2018-12-17T10:40:22.856Z,61.93
2018-12-17T10:42:52.707Z,60.50
2018-12-17T10:45:22.683Z,58.60
2018-12-17T10:47:52.722Z,62.53
2018-12-17T10:50:22.692Z,59.87
2018-12-17T10:52:52.644Z,61.70
2018-12-17T10:55:22.937Z,59.40
2018-12-17T10:57:53.317Z,60.23
2018-12-17T11:00:28.551Z,62.63
2018-12-17T11:03:02.018Z,63.17
2018-12-17T11:05:33.097Z,63.77
2018-12-17T11:08:03.153Z,60.67
2018-12-17T11:10:33.661Z,62.87
2018-12-17T11:13:03.931Z,62.57
2018-12-17T11:15:33.881Z,62.50
2018-12-17T11:18:03.846Z,63.27
2018-12-17T11:20:34.036Z,62.47
2018-12-17T11:23:04.097Z,59.37
2018-12-17T11:25:34.192Z,61.77
2018-12-17T11:28:04.164Z,55.87
2018-12-17T11:30:34.667Z,62.00
2018-12-17T11:33:04.815Z,57.03
2018-12-17T11:35:34.938Z,59.17
2018-12-17T11:38:05.257Z,60.37
2018-12-17T11:40:35.707Z,61.57
2018-12-17T11:43:05.998Z,59.40
2018-12-17T11:45:36.224Z,58.83
2018-12-17T11:48:06.652Z,58.83
2018-12-17T11:50:36.892Z,60.10
2018-12-17T11:53:07.037Z,59.43
2018-12-17T11:55:37.051Z,58.27
2018-12-17T11:58:12.072Z,57.50
2018-12-17T12:00:45.868Z,57.83
2018-12-17T12:03:15.991Z,57.90
2018-12-17T12:05:46.262Z,55.53
2018-12-17T12:08:16.314Z,57.63
2018-12-17T12:10:46.317Z,52.33
2018-12-17T12:13:16.502Z,55.50
2018-12-17T12:15:46.602Z,54.00
2018-12-17T12:18:16.652Z,53.87
2018-12-17T12:20:46.363Z,52.93
2018-12-17T12:23:16.557Z,48.97
2018-12-17T12:25:46.727Z,52.80
2018-12-17T12:28:16.697Z,52.53
2018-12-17T12:30:47.033Z,54.63
2018-12-17T12:33:17.922Z,52.30
2018-12-17T12:35:48.287Z,53.80
2018-12-17T12:38:18.463Z,52.87
2018-12-17T12:40:48.318Z,50.57
2018-12-17T12:43:18.567Z,50.80
2018-12-17T12:45:48.552Z,52.20
2018-12-17T12:48:18.632Z,52.13
2018-12-17T12:50:50.956Z,51.53
2018-12-17T12:53:20.968Z,50.60
2018-12-17T12:55:51.163Z,52.87
2018-12-17T12:58:20.922Z,51.33
2018-12-17T13:00:50.886Z,51.67
2018-12-17T13:03:27.253Z,50.27
2018-12-17T13:05:59.373Z,50.10
2018-12-17T13:08:29.458Z,50.67
2018-12-17T13:10:59.627Z,50.00
2018-12-17T13:13:29.780Z,51.33
2018-12-17T13:16:00.217Z,50.87
2018-12-17T13:18:30.568Z,52.70
2018-12-17T13:21:00.752Z,51.00
2018-12-17T13:23:30.692Z,49.40
2018-12-17T13:26:00.772Z,51.70
2018-12-17T13:28:30.731Z,51.13
2018-12-17T13:31:00.967Z,52.23
2018-12-17T13:33:31.292Z,49.53
2018-12-17T13:36:01.567Z,50.97
2018-12-17T13:38:31.882Z,49.10
2018-12-17T13:41:02.092Z,51.00
2018-12-17T13:43:32.147Z,50.53
2018-12-17T13:46:02.522Z,50.53
2018-12-17T13:48:32.827Z,51.17
2018-12-17T13:51:43.908Z,52.37
2018-12-17T13:54:14.097Z,49.00
2018-12-17T13:56:44.199Z,49.07
2018-12-17T13:59:14.213Z,52.73
2018-12-17T14:01:51.177Z,50.97
2018-12-17T14:04:16.777Z,52.77
2018-12-17T14:06:48.007Z,53.77
2018-12-17T14:09:18.382Z,55.30
2018-12-17T14:11:48.317Z,53.47
2018-12-17T14:14:18.622Z,51.43
2018-12-17T14:16:53.911Z,51.37
2018-12-17T14:19:26.082Z,50.00
2018-12-17T14:22:03.208Z,52.03
2018-12-17T14:24:33.298Z,51.80
2018-12-17T14:27:03.648Z,51.13
2018-12-17T14:29:33.727Z,51.60
2018-12-17T14:32:05.218Z,55.03
2018-12-17T14:34:35.838Z,53.27
2018-12-17T14:37:06.318Z,54.47
2018-12-17T14:39:36.683Z,53.00
2018-12-17T14:42:06.783Z,51.70
2018-12-17T14:44:37.093Z,53.90
2018-12-17T14:47:07.968Z,53.60
2018-12-17T14:49:37.738Z,53.13
2018-12-17T14:52:08.108Z,53.30
2018-12-17T14:54:38.113Z,52.23
2018-12-17T14:57:08.328Z,55.57
2018-12-17T14:59:39.005Z,54.27
2018-12-17T15:02:09.303Z,53.80
2018-12-17T15:04:39.623Z,52.30
2018-12-17T15:07:09.888Z,52.23
2018-12-17T15:09:39.948Z,53.80
2018-12-17T15:12:10.399Z,53.90
2018-12-17T15:14:40.408Z,53.27
2018-12-17T15:17:11.199Z,52.57
2018-12-17T15:19:41.614Z,53.57
2018-12-17T15:22:11.823Z,55.13
2018-12-17T15:24:41.930Z,55.13
2018-12-17T15:27:12.053Z,56.10
2018-12-17T15:29:42.044Z,57.07
2018-12-17T15:32:12.448Z,56.90
2018-12-17T15:34:42.358Z,57.80
2018-12-17T15:37:12.598Z,56.63
2018-12-17T15:39:42.758Z,59.40
2018-12-17T15:42:13.073Z,58.87
2018-12-17T15:44:43.352Z,58.03
2018-12-17T15:47:13.832Z,59.20
2018-12-17T15:49:44.043Z,60.13
2018-12-17T15:52:13.958Z,58.97
2018-12-17T15:54:44.177Z,61.60
2018-12-17T15:57:14.413Z,60.70
2018-12-17T15:59:44.767Z,61.83
2018-12-17T16:02:14.858Z,61.97
2018-12-17T16:04:44.913Z,63.07
2018-12-17T16:07:15.162Z,61.67
2018-12-17T16:09:45.098Z,65.97
2018-12-17T16:12:16.646Z,63.87
2018-12-17T16:14:46.658Z,64.93
2018-12-17T16:17:16.737Z,66.67
2018-12-17T16:19:46.944Z,64.43
2018-12-17T16:22:16.845Z,63.00
2018-12-17T16:24:47.517Z,63.53
2018-12-17T16:27:19.396Z,64.60
2018-12-17T16:29:49.624Z,64.07
2018-12-17T16:32:19.692Z,64.53
2018-12-17T16:34:49.605Z,68.07
2018-12-17T16:37:19.632Z,63.87
2018-12-17T16:39:50.104Z,63.67
2018-12-17T16:42:20.457Z,60.10
2018-12-17T16:44:50.574Z,62.93
2018-12-17T16:47:21.149Z,61.90
2018-12-17T16:49:51.288Z,63.73
2018-12-17T16:52:21.443Z,68.17
2018-12-17T16:54:51.502Z,60.67
2018-12-17T16:57:22.307Z,63.83
2018-12-17T16:59:52.643Z,63.23
2018-12-17T17:02:22.743Z,62.93
2018-12-17T17:04:52.873Z,60.70
2018-12-17T17:07:23.282Z,66.47
2018-12-17T17:09:55.523Z,66.97
2018-12-17T17:12:25.808Z,65.20
2018-12-17T17:14:56.218Z,58.97
2018-12-17T17:17:26.417Z,64.87
2018-12-17T17:19:56.462Z,64.57
2018-12-17T17:22:26.428Z,61.40
2018-12-17T17:24:56.582Z,62.83
2018-12-17T17:27:26.422Z,66.53
2018-12-17T17:29:56.773Z,62.97
2018-12-17T17:32:26.677Z,64.97
2018-12-17T17:34:56.858Z,67.93
2018-12-17T17:37:27.194Z,67.10
2018-12-17T17:39:57.283Z,67.67
2018-12-17T17:42:27.553Z,67.27
2018-12-17T17:44:57.449Z,65.07
2018-12-17T17:47:27.509Z,67.50
2018-12-17T17:49:57.568Z,65.20
2018-12-17T17:52:28.008Z,64.80
2018-12-17T17:54:58.535Z,66.63
2018-12-17T17:57:28.800Z,64.43
2018-12-17T17:59:59.333Z,60.50
2018-12-17T18:02:29.743Z,63.30
2018-12-17T18:04:59.973Z,60.17
2018-12-17T18:07:30.123Z,65.87
2018-12-17T18:10:00.383Z,63.40
2018-12-17T18:12:30.703Z,63.57
2018-12-17T18:15:00.909Z,60.97
2018-12-17T18:17:31.197Z,61.10
2018-12-17T18:20:01.383Z,61.37
2018-12-17T18:22:31.588Z,64.33
2018-12-17T18:25:01.857Z,61.47
2018-12-17T18:27:31.874Z,59.40
2018-12-17T18:30:02.148Z,59.27
2018-12-17T18:32:32.142Z,61.33
2018-12-17T18:35:02.168Z,60.30
2018-12-17T18:37:32.222Z,59.47
2018-12-17T18:40:02.439Z,57.17
2018-12-17T18:42:32.729Z,56.53
2018-12-17T18:45:02.868Z,57.07
2018-12-17T18:47:32.993Z,59.93
2018-12-17T18:50:03.222Z,57.53
2018-12-17T18:52:33.436Z,58.10
2018-12-17T18:55:03.706Z,58.97
2018-12-17T18:57:34.123Z,57.60
2018-12-17T19:00:04.833Z,57.47
2018-12-17T19:02:34.963Z,56.77
2018-12-17T19:05:06.012Z,56.90
2018-12-17T19:07:36.343Z,57.57
2018-12-17T19:10:07.623Z,56.83
2018-12-17T19:12:37.673Z,56.57
2018-12-17T19:15:08.176Z,56.27
2018-12-17T19:17:38.122Z,54.07
2018-12-17T19:20:08.359Z,55.73
2018-12-17T19:22:38.593Z,56.60
2018-12-17T19:25:08.878Z,57.07
2018-12-17T19:27:39.217Z,53.77
2018-12-17T19:30:09.767Z,58.97
2018-12-17T19:32:40.400Z,61.07
2018-12-17T19:35:10.812Z,59.37
2018-12-17T19:37:40.939Z,59.87
2018-12-17T19:40:11.373Z,62.13
2018-12-17T19:42:41.508Z,59.10
2018-12-17T19:45:12.103Z,59.77
2018-12-17T19:47:42.233Z,57.67
2018-12-17T19:50:12.568Z,58.67
2018-12-17T19:52:43.073Z,60.10
2018-12-17T19:55:13.363Z,58.93
2018-12-17T19:57:44.008Z,59.87
2018-12-17T20:00:14.747Z,65.57
2018-12-17T20:02:47.145Z,59.07
2018-12-17T20:05:17.303Z,58.33
2018-12-17T20:07:48.268Z,57.63
2018-12-17T20:10:24.544Z,54.33
2018-12-17T20:12:54.838Z,56.70
2018-12-17T20:15:25.519Z,55.70
2018-12-17T20:17:56.003Z,54.90
2018-12-17T20:20:26.669Z,53.00
2018-12-17T20:22:58.077Z,57.80
2018-12-17T20:25:28.658Z,55.37
2018-12-17T20:27:59.034Z,58.40
2018-12-17T20:30:29.913Z,59.07
2018-12-17T20:33:00.648Z,61.50
2018-12-17T20:35:31.224Z,58.93
2018-12-17T20:38:01.529Z,58.93
2018-12-17T20:40:31.984Z,56.63
2018-12-17T20:43:05.654Z,59.03
2018-12-17T20:45:41.248Z,55.10
2018-12-17T20:48:11.738Z,53.57
2018-12-17T20:50:42.359Z,56.13
2018-12-17T20:53:13.023Z,55.87
2018-12-17T20:55:42.983Z,58.80
2018-12-17T20:58:13.539Z,59.47
2018-12-17T21:00:48.418Z,58.80
2018-12-17T21:03:19.168Z,61.80
2018-12-17T21:05:50.954Z,63.17
2018-12-17T21:08:21.173Z,57.93
2018-12-17T21:10:51.438Z,55.07
2018-12-17T21:13:22.233Z,52.77
2018-12-17T21:15:52.713Z,53.33
2018-12-17T21:18:22.838Z,51.50
2018-12-17T21:20:52.828Z,50.57
2018-12-17T21:23:23.919Z,51.33
2018-12-17T21:25:54.373Z,51.40
2018-12-17T21:28:24.383Z,53.03
2018-12-17T21:30:54.293Z,52.87
2018-12-17T21:33:24.463Z,53.80
2018-12-17T21:35:54.538Z,57.47
2018-12-17T21:38:24.888Z,69.07
2018-12-17T21:40:55.057Z,73.97
2018-12-17T21:43:24.888Z,66.13
2018-12-17T21:45:58.098Z,67.83
2018-12-17T21:48:28.088Z,80.20
2018-12-17T21:50:58.121Z,76.53
2018-12-17T21:53:28.242Z,84.80
2018-12-17T21:55:58.672Z,72.53
2018-12-17T21:58:29.113Z,63.70
2018-12-17T22:00:59.071Z,63.70
2018-12-17T22:03:29.252Z,62.10
2018-12-17T22:05:59.687Z,60.10
2018-12-17T22:08:29.902Z,59.50
2018-12-17T22:10:59.927Z,52.37
2018-12-17T22:13:29.993Z,48.50
2018-12-17T22:16:00.192Z,48.83
2018-12-17T22:18:30.197Z,50.23
2018-12-17T22:21:00.668Z,51.57
2018-12-17T22:23:30.661Z,49.93
2018-12-17T22:26:00.832Z,45.87
2018-12-17T22:28:30.922Z,44.90
2018-12-17T22:31:00.757Z,40.73
2018-12-17T22:33:31.017Z,49.37
2018-12-17T22:36:01.352Z,47.23
2018-12-17T22:38:31.367Z,54.80
2018-12-17T22:41:01.572Z,54.03
2018-12-17T22:43:31.836Z,36.80
2018-12-17T22:46:02.292Z,41.67
2018-12-17T22:48:32.296Z,41.67
2018-12-17T22:51:02.556Z,38.90
2018-12-17T22:53:32.546Z,39.73
2018-12-17T22:56:02.441Z,42.97
2018-12-17T22:58:32.606Z,45.93
2018-12-17T23:01:02.716Z,51.47
2018-12-17T23:03:32.651Z,50.03
2018-12-17T23:06:02.767Z,41.53
2018-12-17T23:08:33.315Z,41.87
2018-12-17T23:11:13.781Z,40.93
2018-12-17T23:13:54.716Z,38.90
2018-12-17T23:16:35.486Z,43.03
2018-12-17T23:19:03.850Z,47.37
2018-12-17T23:21:33.957Z,50.97
2018-12-17T23:24:03.972Z,48.27
2018-12-17T23:26:34.126Z,48.60
2018-12-17T23:29:04.331Z,44.13
2018-12-17T23:31:34.166Z,44.77
2018-12-17T23:34:04.241Z,49.33
2018-12-17T23:36:34.445Z,41.07
2018-12-17T23:39:05.615Z,37.13
2018-12-17T23:41:35.566Z,41.53
2018-12-17T23:44:05.950Z,40.27
2018-12-17T23:46:36.075Z,41.93
2018-12-17T23:49:06.515Z,42.93
2018-12-17T23:51:36.795Z,42.00
2018-12-17T23:54:07.020Z,38.27
2018-12-17T23:56:37.005Z,39.90
2018-12-17T23:59:07.035Z,42.47
